Terminal Aerodrome Forecast
Issued by NWS Tuscon, AZ

Home | Current Version | Previous Version | Text Only | Print | Product List | Glossary On
Versions: 1 2 3 4 5 6 7 8 9 10 11 12 13 14 15 16 17 18 19
000
FTUS45 KTWC 222200 AAA
TAFDUG
TAF AMD
KDUG 222243Z 2223/2318 21006KT P6SM VCTS SCT100CB BKN200
      TEMPO 2223/2301 VRB15G30KT P6SM TSRA BKN100CB OVC200
     FM230200 34005KT P6SM SCT140 BKN200
     FM230400 17007KT P6SM VCSH SCT090 BKN120
     FM230800 09004KT P6SM SCT120 BKN250=

USA.gov is the U.S. government's official web portal to all federal, state and local government web resources and services.